Nearby METAR Reports


Data Updates Approximately Every Four (4) Hours

METAR is the international standard code format for hourly surface weather observations which is analogous to the SA coding currently used in the US. The acronym roughly translates from French as Aviation Routine Weather Report. SPECI is merely the code name given to METAR formatted products which are issued on a special non-routine basis as dictated by changing meteorological conditions. The SPECI acronym roughly translates as Aviation Selected Special Weather Report.
Source: NOAA-National Centers For Environmental Information.

KSLH - Cheboygan, Michigan, USA
Distance from Lake Huron Weather: W 9mi
Updated: 09/27/2022 4:55am
Rain, Overcast
Rain, Overcast
 Wind from W
Wind: W 6 mph , 9 km/h
Temperature: 50°F , 10°C
Wind Chill: 48°F , 9°C
Dew Point: 50°F , 10°C
Humidity: 100%
Barometer: 29.76 inHg , 1007.8 hPa
Summary: Rain
Clouds: Overcast
Visibility: 10 miles , 16 km
Cloud details: Overcast 800 ft
2022/09/27 08:55 KSLH 270855Z AUTO 27005KT 10SM RA OVC008 10/10 A2976 RMK AO2
KMCD - Mackinac Island, Michigan, USA
Distance from Lake Huron Weather: NW 19mi
Updated: 09/27/2022 4:55am
Overcast
Overcast
 Wind from NNW
Wind: NNW 13 mph , 20 km/h, Gust: 18 mph , 30 km/h
Temperature: 50°F , 10°C
Wind Chill: 45°F , 7°C
Dew Point: 50°F , 10°C
Humidity: 100%
Barometer: 29.76 inHg , 1007.8 hPa
Clouds: Overcast
Visibility: 4 miles , 6 km
Cloud details: Overcast 500 ft
2022/09/27 08:55 KMCD 270855Z AUTO 34011G16KT 4SM UP OVC005 10/10 A2976 RMK AO2 60017 T00950095 P0013
 
KDRM - Drummond Is, Michigan, USA
Distance from Lake Huron Weather: NE 36mi
Updated: 09/27/2022 4:55am
Overcast
Overcast
 Wind from calm
Wind: Calm
Temperature: 52°F , 11°C
Dew Point: 48°F , 9°C
Humidity: 88%
Barometer: 29.74 inHg , 1007.1 hPa
Clouds: Overcast
Visibility: 10 miles , 16 km
Cloud details: Partly cloudy 1400 ft
Overcast 2000 ft
2022/09/27 08:55 KDRM 270855Z AUTO 00000KT 10SM SCT014 OVC020 11/09 A2974 RMK AO2 T01050092
KPZQ - Rogers City, Michigan, USA
Distance from Lake Huron Weather: SE 31mi
Updated: 09/27/2022 4:55am
Overcast
Overcast
 Wind from NW
Wind: NW 9 mph , 15 km/h
Temperature: 50°F , 10°C
Wind Chill: 46°F , 8°C
Dew Point: 48°F , 9°C
Humidity: 94%
Barometer: 29.75 inHg , 1007.5 hPa
Clouds: Overcast
Visibility: 10 miles , 16 km
Cloud details: Mostly cloudy 1300 ft
Overcast 1800 ft
2022/09/27 08:55 KPZQ 270855Z AUTO 32008KT 10SM BKN013 OVC018 10/09 A2975 RMK AO2 T01000092
 
CYAM - Sault Ste Marie, Ontario, Canada
Distance from Lake Huron Weather: N 56mi
Updated: 09/27/2022 5:00am
Overcast
Overcast
 Wind from NNW
Wind: NNW 8 mph , 13 km/h
Temperature: 50°F , 10°C
Wind Chill: 47°F , 8°C
Dew Point: 46°F , 8°C
Humidity: 88%
Barometer: 29.77 inHg , 1008.1 hPa
Clouds: Overcast
Visibility: 8 miles , 13 km
Cloud details: Partly cloudy 2400 ft
Mostly cloudy 4900 ft
Overcast 7600 ft
2022/09/27 09:00 CYAM 270900Z 34007KT 8SM SCT024 BKN049 OVC076 10/08 A2977 RMK CU3SC4AC1 -SHRA OCNL SLP086
KANJ - Sault Ste Marie, Michigan, USA
Distance from Lake Huron Weather: N 56mi
Updated: 09/27/2022 4:55am
Overcast
Overcast
 Wind from N
Wind: N 3 mph , 6 km/h
Temperature: 52°F , 11°C
Dew Point: 46°F , 8°C
Humidity: 82%
Barometer: 29.76 inHg , 1007.8 hPa
Clouds: Overcast
Visibility: 10 miles , 16 km
Cloud details: Partly cloudy 5500 ft
Overcast 7000 ft
2022/09/27 08:55 KANJ 270855Z AUTO 35003KT 10SM SCT055 OVC070 11/08 A2976 RMK AO2 SLP077 60002 T01060083 51010
 
KGLR - Gaylord, Michigan, USA
Distance from Lake Huron Weather: SSW 48mi
Updated: 09/27/2022 4:53am
Light rain, Mist, Overcast
Light rain, Mist, Overcast
 Wind from W
Wind: W 6 mph , 9 km/h
Temperature: 48°F , 9°C
Wind Chill: 45°F , 7°C
Dew Point: 46°F , 8°C
Humidity: 94%
Barometer: 29.77 inHg , 1008.1 hPa
Summary: Light rain, Mist
Clouds: Overcast
Visibility: 2 miles , 3 km
Cloud details: Overcast 1200 ft
2022/09/27 08:53 KGLR 270853Z AUTO 28005KT 2SM -RA BR OVC012 09/08 A2977 RMK AO2 RAE07B28 SLP085 P0001 60001 T00940078 50000
KPLN - Pellston, Michigan, USA
Distance from Lake Huron Weather: WSW 24mi
Updated: 09/27/2022 4:54am
Light rain, Overcast
Light rain, Overcast
 Wind from NW
Wind: NW 10 mph , 17 km/h
Temperature: 52°F , 11°C
Dew Point: 48°F , 9°C
Humidity: 88%
Barometer: 29.77 inHg , 1008.1 hPa
Summary: Light rain
Clouds: Overcast
Visibility: 9 miles , 14 km
Cloud details: Partly cloudy 900 ft
Mostly cloudy 3700 ft
Overcast 6000 ft
2022/09/27 08:54 KPLN 270854Z AUTO 32009KT 9SM -RA SCT009 BKN037 OVC060 11/09 A2977 RMK AO2 SLP084 P0005 60010 T01060094 51000